Cactus Peak, Santa Catalina Island Weather observations

Data are for 10 minute period ending at time listed.
 Day   Time   Solar   Ave.   Ave.  Ave.  Vector    Max.   Stn.    Total
  of    of     Rad.   Air    Rel.  Wind   Wind     Wind   Baro.  Precip.
Year   Day            Temp.  Hum.  Speed  Dir.     Gust   Pres.         
2026   (PST)   W/m2    F      %     mph   deg.      mph    mb.     in.  
------------------------------------------------------------------------
 247   18:40    0.0    62    0.4     9    341.9    11.9    999.0   0.00  
 247   18:50    0.0    62    0.4    10    358.1    13.1    999.0   0.00  
 247   19:00    0.0    62    0.4     9    359.9    12.5    999.0   0.00  
 247   19:10    0.0    62    0.4    10      0.8    12.5    999.0   0.00  
 247   19:20    0.0    62   96.4     9      7.0    11.3    999.0   0.00  
 247   19:30    0.0    62   99.9     8      2.7    11.3    999.0   0.00  
 247   19:40    0.0    62   99.9     9      1.2    11.3    999.0   0.00  
 247   19:50    0.0    61   99.9     9      5.4    12.5    999.0   0.00  
 247   20:00    0.0    61   99.9     7      4.8     9.6    999.0   0.00  
 247   20:10    0.0    61   99.9     9    350.0    10.8    999.0   0.00  
 247   20:20    0.0    61   99.9     8    347.2    10.8    999.0   0.00  
 247   20:30    0.0    61   99.9     9    345.6    11.3    999.0   0.00  
 247   20:40    0.0    61   99.9     9    356.3    11.3    999.0   0.00  
 247   20:50    0.0    61   99.9     8    334.7    10.2    999.0   0.00  
 247   21:00    0.0    61   99.9     7    327.2     9.0    999.0   0.00  
 247   21:10    0.0    61   99.9     7    326.7     7.8    999.0   0.00  
 247   21:20    0.0    61   99.9     6    327.9     7.2    999.0   0.00  
 247   21:30    0.0    61   99.9     4    324.0     5.4    999.0   0.00  
 247   21:40    0.0    61   99.9     4    324.5     4.8    999.0   0.00  
 247   21:50    0.0    60   99.9     1    326.8     3.0    999.0   0.00  
 247   22:00    0.0    60   99.9     1    322.8     2.4    999.0   0.00  
 247   22:10    0.0    61   15.0     1    316.7     0.6    999.0   0.00  
 247   22:20    0.0    62   79.6     1    359.3     0.6    999.0   0.00  
 247   22:30    0.0    62   85.5     2    315.0     3.6    999.0   0.00  
 247   22:40    0.0    62   80.0     1    166.0     4.8    999.0   0.00  
 247   22:50    0.0    63   77.8     1    162.5     1.8    999.0   0.00  
 247   23:00    0.0    63   75.1     1    148.3     0.6    999.0   0.00  
 247   23:10    0.0    63   77.2     2    139.8     5.4    999.0   0.00  
 247   23:20    0.0    62   83.3     2    133.0     6.0    999.0   0.00  
 247   23:30    0.0    62   46.0     4    136.9     6.6    999.0   0.00  
 247   23:40    0.0    62   29.6     5    145.1     6.6    999.0   0.00  
 247   23:50    0.0    62    0.4     6    149.1     7.2    999.0   0.00  
 248    0:00    0.0    62   11.9     5    161.1     7.2    999.0   0.00  
 248    0:10    0.0    62   99.9     6    178.0     8.4    999.0   0.00  
 248    0:20    0.0    62   99.9     7    176.2    11.3    999.0   0.00  
 248    0:30    0.0    62   99.9     6    178.9     9.6    999.0   0.00  
 248    0:40    0.0    62   99.9     5    173.7     8.4    999.0   0.00  
 248    0:50    0.0    62   99.9     7    174.8    10.8    999.0   0.00  
 248    1:00    0.0    62   99.9     7    169.0    10.2    999.0   0.00  
 248    1:10    0.0    61   99.9     5    171.4     7.8    999.0   0.00  
 248    1:20    0.0    62   99.9     3    171.8     6.0    999.0   0.00  
 248    1:30    0.0    61   99.9     4    162.5     7.2    999.0   0.00  
 248    1:40    0.0    61   99.9     2    157.8     5.4    999.0   0.00  
 248    1:50    0.0    61   99.9     3    157.9     7.2    999.0   0.00  
 248    2:00    0.0    61   99.9     4    166.7     6.0    999.0   0.00  
 248    2:10    0.0    61   99.9     2    178.5     6.0    999.0   0.00  
 248    2:20    0.0    60   99.9     1     36.8     0.6    999.0   0.00  
 248    2:30    0.0    61   99.9     1    118.6     1.2    999.0   0.00  
 248    2:40    0.0    61   99.9     2    156.2     6.0    999.0   0.00  
 248    2:50    0.0    61   99.9     5    161.1     6.6    999.0   0.00  
 248    3:00    0.0    61   99.9     2    163.2     3.6    999.0   0.00  
 248    3:10    0.0    61   99.9     1    156.4     2.4    999.0   0.00  
 248    3:20    0.0    61   44.3     3    160.3     6.6    999.0   0.00  
 248    3:30    0.0    61    0.4     5    156.8     7.2    999.0   0.00  
 248    3:40    0.0    61   19.8     4    141.8     6.6    999.0   0.00  
 248    3:50    0.0    61   38.4     3    125.5     4.8    999.0   0.00  
 248    4:00    0.0    61   93.6     3    131.3     4.8    999.0   0.00  
 248    4:10    0.0    61   34.2     1     83.9     1.2    999.0   0.00  
 248    4:20    0.0    61    0.4     4     34.4     6.6    999.0   0.00  
 248    4:30    0.0    61    0.4     5     24.5     6.0    999.0   0.00  
 248    4:40    0.0    61    0.4     4     18.0     4.8    999.0   0.00  
 248    4:50    0.0    61   41.0     2    170.2     4.2    999.0   0.00  
 248    5:00    0.0    61    0.4     2    168.7     4.2    999.0   0.00  
 248    5:10    0.0    61    0.4     1    162.0     2.4    999.0   0.00  
 248    5:20    0.0    61    0.4     2    151.9     4.8    999.0   0.00  
 248    5:30    1.0    60    0.4     1    116.4     1.2    999.0   0.00  
 248    5:40    9.0    61   83.9     3     19.5     6.0    999.0   0.00  
 248    5:50   30.0    62   84.3     6      9.6     6.6    999.0   0.00  
 248    6:00   56.0    62   85.0     5    345.3     6.6    999.0   0.00  
 248    6:10   88.0    62   81.9     2    313.5     4.2    999.0   0.00  
 248    6:20  119.0    64   77.9     1    243.9     0.6    999.0   0.00  
 248    6:30  145.0    66   69.8     1    193.6     0.6    999.0   0.00  
 248    6:40  172.0    67   68.5     1      6.8     0.6    999.0   0.00  
 248    6:50  201.0    66   71.5     3      5.9     6.0    999.0   0.00  
 248    7:00  229.0    66   70.2     3    344.5     4.8    999.0   0.00  
 248    7:10  260.0    68   67.4     4    359.4     4.8    999.0   0.00  
 248    7:20  288.0    69   65.5     1     33.4     4.2    999.0   0.00  
 248    7:30  318.0    68   74.2     2    169.7     4.2    999.0   0.00  
 248    7:40  351.0    69   65.7     2      6.2     4.2    999.0   0.00  
 248    7:50  381.0    69   74.1     1    173.0     4.2    999.0   0.00  
 248    8:00  414.0    67   79.2     3    173.5     4.8    999.0   0.00  
 248    8:10  444.0    67   79.4     3    174.7     4.8    999.0   0.00  
 248    8:20  475.0    68   74.7     1    180.6     4.2    999.0   0.00  
 248    8:30  505.0    70   64.9     1    143.3     0.6    999.0   0.00  
 248    8:40  534.0    70   73.2     4    177.3     7.2    999.0   0.00  
 248    8:50  561.0    70   73.7     3    180.7     5.4    999.0   0.00  
 248    9:00  590.0    70   67.0     2     33.2     6.6    999.0   0.00  
 248    9:10  614.0    73   59.4     2    125.1     6.0    999.0   0.00  
 248    9:20  640.0    72   67.3     3    174.7     5.4    999.0   0.00  
 248    9:30  662.0    73   61.5     2    212.3     6.0    999.0   0.00  
 248    9:40  685.0    72   67.1     6    187.1     9.0    999.0   0.00  
 248    9:50  707.0    72   68.7     5    178.6     8.4    999.0   0.00  
 248   10:00  726.0    72   68.0     4    178.0     7.8    999.0   0.00  
 248   10:10  746.0    72   69.5     7    173.3    10.8    999.0   0.00  
 248   10:20  764.0    72   68.9     6    175.4    11.9    999.0   0.00  
 248   10:30  781.0    72   66.9     6    181.8    11.3    999.0   0.00  
 248   10:40  796.0    72   68.0     8    181.1    12.5    999.0   0.00  
 248   10:50  809.0    71   71.1     8    185.3    11.9    999.0   0.00  
 248   11:00  822.0    72   66.3     4    184.2     7.8    999.0   0.00  
 248   11:10  829.0    76   60.8     3    188.3     8.4    999.0   0.00  
 248   11:20  845.0    75   64.1     3    159.3     7.2    999.0   0.00  
 248   11:30  869.0    76   62.5     4    183.4     7.8    999.0   0.00  
 248   11:40  843.0    75   63.1     5    165.3    10.8    999.0   0.00  
 248   11:50  923.0    75   64.5     8    170.6    13.7    999.0   0.00  
 248   12:00  820.0    74   65.1     7    174.6    11.9    999.0   0.00  
 248   12:10  736.0    76   62.6     6    175.3    10.8    999.0   0.00  
 248   12:20  733.0    75   64.3     5    166.5     9.6    999.0   0.00  
 248   12:30  685.0    77   59.6     1    167.2     7.8    999.0   0.00  
 248   12:40  848.0    80   54.2     2    191.9     7.8    999.0   0.00  
 248   12:50  824.0    79   55.6     7    186.3    10.2    999.0   0.00  
 248   13:00  803.0    78   55.4     7    184.0    11.9    999.0   0.00  
 248   13:10  789.0    78   54.9     6    178.7    11.3    999.0   0.00  
 248   13:20  774.0    79   54.0     3    172.9     9.6    999.0   0.00  
 248   13:30  756.0    80   52.1     1    254.6     0.6    999.0   0.00  
 248   13:40  742.0    82   48.8     1    253.0     0.6    999.0   0.00  
 248   13:50  727.0    81   47.1     1    255.8     0.6    999.0   0.00  
 248   14:00  722.0    82   41.8     2    179.9     9.6    999.0   0.00  
 248   14:10  748.0    81   41.6     3    177.9     8.4    999.0   0.00  
 248   14:20  601.0    83   36.5     3    185.2     8.4    999.0   0.00  
 248   14:30  444.0    80   37.9     6    181.9     9.6    999.0   0.00  
 248   14:40  505.0    79   37.9     5    174.4    10.2    999.0   0.00  
 248   14:50  491.0    80   35.7     6    184.2    10.8    999.0   0.00  
 248   15:00  347.0    79   34.5     4    180.1     7.8    999.0   0.00  
 248   15:10  348.0    79   33.2     5    175.5     8.4    999.0   0.00  
 248   15:20  384.0    80   29.6     5    181.0    10.2    999.0   0.00  
 248   15:30  470.0    80   26.3     4    198.0     9.0    999.0   0.00  
 248   15:40  446.0    81   24.3     4    196.1     7.8    999.0   0.00  
 248   15:50  415.0    81   24.8     6    182.7     9.6    999.0   0.00  
 248   16:00  383.0    81   35.5     2      1.8     7.2    999.0   0.00  
 248   16:10  353.0    80   42.5     1    350.0     0.6    999.0   0.00  
 248   16:20  321.0    80   44.3     1    344.9     0.6    999.0   0.00  
 248   16:30  289.0    78   46.8     1      4.0     0.6    999.0   0.00  
 248   16:40  258.0    78   47.8     1     12.4     0.6    999.0   0.00  
 248   16:50  227.0    78   49.3     1    352.0     0.6    999.0   0.00  
 248   17:00  195.0    77   51.9     1    346.7     0.6    999.0   0.00  
 248   17:10  165.0    78   50.6     1      7.6     0.6    999.0   0.00  
 248   17:20  135.0    78   50.6     1     11.8     0.6    999.0   0.00  
 248   17:30  107.0    76   54.2     1     19.4     0.6    999.0   0.00  
 248   17:40   79.0    74   58.2     1      7.9     0.6    999.0   0.00  
 248   17:50   50.0    73   65.3     1      0.9     0.6    999.0   0.00  
 248   18:00   29.0    71   72.5     1     17.7     0.6    999.0   0.00  
 248   18:10   12.0    70   64.8     1    335.4     0.6    999.0   0.00  
 248   18:20    3.0    71   57.9     1    334.3     0.6    999.0   0.00  
 248   18:30    1.0    71   43.8     1    312.7     0.6    999.0   0.00  

Return to Cactus Peak graphs page.


Western Regional Climate Center,wrcc@dri.edu